createdAt,value
2019-06-26T00:14:08.201Z,24.80
2019-06-26T00:29:12.263Z,24.70
2019-06-26T00:44:16.285Z,24.60
2019-06-26T00:59:20.230Z,24.30
2019-06-26T01:14:24.200Z,24.20
2019-06-26T01:29:28.120Z,24.00
2019-06-26T01:44:32.060Z,23.90
2019-06-26T01:59:35.970Z,23.80
2019-06-26T02:14:40.960Z,23.80
2019-06-26T02:29:44.879Z,23.70
2019-06-26T02:44:53.879Z,23.70
2019-06-26T02:59:54.370Z,23.60
2019-06-26T03:15:08.376Z,23.60
2019-06-26T03:30:05.443Z,23.60
2019-06-26T03:45:24.598Z,23.60
2019-06-26T04:00:17.827Z,23.50
2019-06-26T04:15:21.955Z,23.70
2019-06-26T04:30:27.179Z,23.60
2019-06-26T04:45:36.743Z,23.80
2019-06-26T05:00:40.639Z,23.90
2019-06-26T05:15:44.641Z,24.20
2019-06-26T05:30:48.505Z,24.60
2019-06-26T05:45:52.488Z,25.00
2019-06-26T06:00:57.065Z,25.60
2019-06-26T06:16:00.983Z,26.10
2019-06-26T06:31:05.039Z,26.60
2019-06-26T06:46:11.597Z,26.90
2019-06-26T07:01:19.847Z,27.30
2019-06-26T07:16:21.109Z,27.70
2019-06-26T07:31:26.528Z,28.00
2019-06-26T07:46:33.505Z,28.40
2019-06-26T08:01:37.433Z,28.80
2019-06-26T08:16:41.337Z,29.00
2019-06-26T08:31:45.246Z,29.40
2019-06-26T08:46:49.191Z,29.80
2019-06-26T09:01:53.627Z,30.20
2019-06-26T09:16:57.562Z,30.60
2019-06-26T09:32:01.805Z,31.00
2019-06-26T09:47:05.832Z,31.40
2019-06-26T10:02:09.842Z,31.70
2019-06-26T10:17:13.779Z,32.20
2019-06-26T10:32:17.715Z,32.90
2019-06-26T10:47:21.729Z,33.20
2019-06-26T11:02:25.646Z,34.00
2019-06-26T11:17:29.616Z,34.30
2019-06-26T11:32:33.524Z,35.20
2019-06-26T11:47:37.871Z,35.60
2019-06-26T12:02:41.755Z,36.60
2019-06-26T12:17:45.697Z,36.60
2019-06-26T12:33:02.156Z,37.10
2019-06-26T12:47:56.771Z,37.50
2019-06-26T13:03:00.699Z,38.10
2019-06-26T13:18:04.583Z,38.20
2019-06-26T13:33:08.663Z,38.50
2019-06-26T13:48:12.642Z,38.70
2019-06-26T14:03:16.610Z,38.80
2019-06-26T14:18:20.489Z,38.80
2019-06-26T14:33:24.493Z,38.80
2019-06-26T14:48:30.510Z,38.90
2019-06-26T15:03:36.007Z,38.90
2019-06-26T15:18:40.168Z,39.00
2019-06-26T15:33:45.678Z,38.80
2019-06-26T15:48:50.469Z,37.90
2019-06-26T16:03:54.405Z,37.50
2019-06-26T16:19:03.002Z,37.60
2019-06-26T16:34:07.208Z,37.30
2019-06-26T16:49:11.673Z,37.10
2019-06-26T17:04:21.839Z,36.60
2019-06-26T17:19:25.783Z,36.40
2019-06-26T17:34:29.789Z,36.20
2019-06-26T17:49:33.780Z,35.80
2019-06-26T18:04:37.795Z,35.40
2019-06-26T18:19:41.825Z,35.00
2019-06-26T18:34:46.894Z,34.70
2019-06-26T18:49:51.147Z,34.20
2019-06-26T19:04:55.144Z,33.90
2019-06-26T19:19:59.241Z,33.50
2019-06-26T19:35:08.173Z,33.20
2019-06-26T19:50:09.062Z,32.90
2019-06-26T20:05:13.111Z,32.60
2019-06-26T20:20:17.065Z,32.40
2019-06-26T20:35:21.981Z,32.00
2019-06-26T20:50:26.020Z,31.70
2019-06-26T21:05:29.957Z,31.30
2019-06-26T21:20:33.938Z,30.80
2019-06-26T21:35:38.264Z,30.50
2019-06-26T21:50:45.379Z,30.10
2019-06-26T22:05:49.641Z,29.80
2019-06-26T22:20:53.827Z,29.40
2019-06-26T22:35:58.025Z,29.10
2019-06-26T22:51:01.990Z,28.70
2019-06-26T23:06:05.966Z,28.50
2019-06-26T23:21:09.889Z,28.20
2019-06-26T23:36:13.945Z,28.10
2019-06-26T23:51:17.878Z,27.80
